DAL864 KMSY-MMMD
Flight info
| Callsign | DAL864 |
|---|---|
| Flight time | N/A |
| Altitude | 37000 |
| Route | LEV A770 KEHLI UA770 MID |
| Aircraft | A321/M-SDE3FGHIRWY/LB1 |
Departure
| Time | 2026-05-06 13:44 |
|---|---|
| Airport | Louis Armstrong New Orleans International Airport (KMSY) |
Arrival
| Time | N/A |
|---|---|
| Airport | Manuel Crescencio Rejón International Airport (MMMD) |
| Time | Latitude | Longitude | Altitude | Speed | Heading |
|---|---|---|---|---|---|
| 2026-05-06 13:06 | 29.98684 | -90.25393 | 16 ft | 0 kts | 119° |
| 2026-05-06 13:32 | 29.98693 | -90.25411 | 17 ft | 4 kts | 120° |
| 2026-05-06 13:33 | 29.98703 | -90.25437 | 16 ft | 4 kts | 80° |
| 2026-05-06 13:33 | 29.98698 | -90.25449 | 20 ft | 1 kts | 36° |
| 2026-05-06 13:33 | 29.98696 | -90.25450 | 18 ft | 1 kts | 36° |
| 2026-05-06 13:37 | 29.98697 | -90.25450 | 18 ft | 1 kts | 36° |
| 2026-05-06 13:37 | 29.98722 | -90.25428 | 17 ft | 8 kts | 36° |
| 2026-05-06 13:37 | 29.98787 | -90.25373 | 14 ft | 14 kts | 35° |
| 2026-05-06 13:38 | 29.98865 | -90.25389 | 13 ft | 12 kts | 298° |
| 2026-05-06 13:38 | 29.98888 | -90.25477 | 14 ft | 10 kts | 285° |
| 2026-05-06 13:38 | 29.98907 | -90.25556 | 16 ft | 11 kts | 286° |
| 2026-05-06 13:38 | 29.98931 | -90.25655 | 19 ft | 15 kts | 285° |
| 2026-05-06 13:39 | 29.98962 | -90.25782 | 18 ft | 17 kts | 285° |
| 2026-05-06 13:39 | 29.98994 | -90.25916 | 14 ft | 18 kts | 285° |
| 2026-05-06 13:39 | 29.99027 | -90.26051 | 14 ft | 17 kts | 285° |
| 2026-05-06 13:39 | 29.99058 | -90.26180 | 13 ft | 17 kts | 285° |
| 2026-05-06 13:40 | 29.99093 | -90.26308 | 14 ft | 16 kts | 287° |
| 2026-05-06 13:40 | 29.99117 | -90.26430 | 13 ft | 15 kts | 284° |
| 2026-05-06 13:40 | 29.99144 | -90.26539 | 12 ft | 14 kts | 285° |
| 2026-05-06 13:40 | 29.99173 | -90.26659 | 11 ft | 17 kts | 285° |
| 2026-05-06 13:41 | 29.99206 | -90.26794 | 15 ft | 17 kts | 286° |
| 2026-05-06 13:41 | 29.99239 | -90.26930 | 15 ft | 18 kts | 285° |
| 2026-05-06 13:41 | 29.99275 | -90.27080 | 12 ft | 21 kts | 285° |
| 2026-05-06 13:41 | 29.99315 | -90.27250 | 10 ft | 23 kts | 285° |
| 2026-05-06 13:42 | 29.99363 | -90.27442 | 7 ft | 26 kts | 285° |
| 2026-05-06 13:42 | 29.99410 | -90.27637 | 8 ft | 24 kts | 285° |
| 2026-05-06 13:42 | 29.99454 | -90.27823 | 6 ft | 24 kts | 285° |
| 2026-05-06 13:42 | 29.99496 | -90.28002 | 9 ft | 22 kts | 285° |
| 2026-05-06 13:43 | 29.99540 | -90.28156 | 10 ft | 14 kts | 308° |
| 2026-05-06 13:43 | 29.99632 | -90.28173 | 10 ft | 13 kts | 13° |
| 2026-05-06 13:43 | 29.99647 | -90.28101 | 9 ft | 8 kts | 104° |
| 2026-05-06 13:43 | 29.99583 | -90.27837 | 7 ft | 69 kts | 105° |
| 2026-05-06 13:44 | 29.99399 | -90.27072 | 14 ft | 125 kts | 105° |
| 2026-05-06 13:44 | 29.99119 | -90.25941 | 49 ft | 163 kts | 104° |
| 2026-05-06 13:44 | 29.98798 | -90.24623 | 420 ft | 174 kts | 105° |
| 2026-05-06 13:44 | 29.98478 | -90.23253 | 913 ft | 180 kts | 110° |
| 2026-05-06 13:45 | 29.98158 | -90.21847 | 1433 ft | 183 kts | 113° |
| 2026-05-06 13:45 | 29.96851 | -90.19549 | 2326 ft | 172 kts | 162° |
| 2026-05-06 13:45 | 29.95682 | -90.19281 | 2761 ft | 173 kts | 178° |
| 2026-05-06 13:46 | 29.94434 | -90.19198 | 3076 ft | 189 kts | 182° |